Time;durP1;ratioP1;P1;durP2;ratioP2;P2;SDS_P1;SDS_P2;PMS_P1;PMS_P2;Temp;Humidity;BMP_temperature;BMP_pressure;BME280_temperature;BME280_humidity;BME280_pressure;Samples;Min_cycle;Max_cycle;Signal;HPM_P1;HPM_P2
2023/10/01 00:00:05;;;;;;;14.05;11.65;;;16.70;99.90;;;;;;6241417;23;20009;-77
2023/10/01 00:02:32;;;;;;;16.35;12.68;;;16.60;99.90;;;;;;6241742;23;20353;-77
2023/10/01 00:04:57;;;;;;;14.25;11.93;;;16.50;99.90;;;;;;6240917;23;20012;-76
2023/10/01 00:07:23;;;;;;;14.00;11.95;;;16.40;99.90;;;;;;6241306;23;20034;-76
2023/10/01 00:09:49;;;;;;;13.07;11.65;;;16.40;99.90;;;;;;6241691;23;20010;-76
2023/10/01 00:12:14;;;;;;;12.93;11.35;;;16.40;99.90;;;;;;6241044;23;20015;-76
2023/10/01 00:14:40;;;;;;;16.85;13.45;;;16.30;99.90;;;;;;6241580;23;20028;-77
2023/10/01 00:17:05;;;;;;;12.48;10.88;;;16.30;99.90;;;;;;6214186;23;20011;-76
2023/10/01 00:19:32;;;;;;;13.10;11.45;;;16.20;99.90;;;;;;6241039;23;20014;-76
2023/10/01 00:22:00;;;;;;;13.43;12.13;;;16.20;99.90;;;;;;6214033;23;20430;-75
2023/10/01 00:24:25;;;;;;;12.85;10.88;;;16.10;99.90;;;;;;6241414;23;20004;-75
2023/10/01 00:26:51;;;;;;;13.75;12.18;;;16.10;99.90;;;;;;6240791;23;20079;-76
2023/10/01 00:29:18;;;;;;;15.68;12.55;;;16.20;99.90;;;;;;6241300;23;20000;-75
2023/10/01 00:31:45;;;;;;;14.85;12.10;;;16.10;99.90;;;;;;6241363;23;20073;-75
2023/10/01 00:34:12;;;;;;;13.40;11.75;;;16.20;99.90;;;;;;6240529;23;20030;-76
2023/10/01 00:36:37;;;;;;;14.10;11.45;;;16.30;99.90;;;;;;6241624;23;20008;-77
2023/10/01 00:39:03;;;;;;;14.95;12.32;;;16.20;99.90;;;;;;6241010;23;20093;-76
2023/10/01 00:41:29;;;;;;;15.25;11.73;;;16.30;99.90;;;;;;6241263;23;20022;-76
2023/10/01 00:43:59;;;;;;;14.38;11.90;;;16.30;99.90;;;;;;6213910;23;20010;-76
2023/10/01 00:46:25;;;;;;;16.52;12.15;;;16.30;99.90;;;;;;6240851;23;20083;-76
2023/10/01 00:48:52;;;;;;;13.68;12.23;;;16.40;99.90;;;;;;6213517;23;20349;-75
2023/10/01 00:51:20;;;;;;;13.48;11.70;;;16.30;99.90;;;;;;6240736;23;20209;-75
2023/10/01 00:53:45;;;;;;;15.93;12.63;;;16.30;99.90;;;;;;6241255;23;20000;-75
2023/10/01 00:56:12;;;;;;;14.27;11.00;;;16.30;99.90;;;;;;6240402;23;20093;-75
2023/10/01 00:58:38;;;;;;;13.63;12.07;;;16.30;99.90;;;;;;6214475;23;20079;-75
2023/10/01 01:01:07;;;;;;;14.98;12.43;;;16.40;99.90;;;;;;6213680;23;20548;-76
2023/10/01 01:03:34;;;;;;;14.82;12.68;;;16.30;99.90;;;;;;6240803;23;20353;-76
2023/10/01 01:08:37;;;;;;;13.73;12.15;;;16.20;99.90;;;;;;6241546;23;20548;-76
2023/10/01 01:11:03;;;;;;;14.10;12.55;;;16.10;99.90;;;;;;6240550;23;20440;-75
2023/10/01 01:13:30;;;;;;;15.82;12.88;;;16.00;99.90;;;;;;6241047;23;20004;-76
2023/10/01 01:15:57;;;;;;;14.90;13.43;;;16.00;99.90;;;;;;6213813;23;20008;-76
2023/10/01 01:18:26;;;;;;;15.25;13.77;;;16.00;99.90;;;;;;6240229;23;20000;-76
2023/10/01 01:20:58;;;;;;;15.82;12.35;;;15.90;99.90;;;;;;6240787;23;20000;-76
2023/10/01 01:23:24;;;;;;;14.15;12.65;;;15.90;99.90;;;;;;6213787;23;20008;-76
2023/10/01 01:25:52;;;;;;;13.88;12.35;;;15.80;99.90;;;;;;6240885;23;20000;-76
2023/10/01 01:28:27;;;;;;;13.30;11.90;;;15.90;99.90;;;;;;6240533;23;20479;-76
2023/10/01 01:30:55;;;;;;;13.93;10.95;;;15.90;99.90;;;;;;6240692;23;20004;-76
2023/10/01 01:33:21;;;;;;;14.68;11.73;;;15.90;99.90;;;;;;6240220;23;20007;-76
2023/10/01 01:35:50;;;;;;;15.00;12.38;;;15.90;99.90;;;;;;6214059;23;20004;-76
2023/10/01 01:38:16;;;;;;;15.27;12.13;;;15.90;99.90;;;;;;6240428;23;20370;-76
2023/10/01 01:40:46;;;;;;;14.65;12.13;;;15.90;99.90;;;;;;6213507;23;20020;-76
2023/10/01 01:43:15;;;;;;;14.45;12.50;;;15.90;99.90;;;;;;6240090;23;20092;-76
2023/10/01 01:45:47;;;;;;;14.52;10.07;;;15.90;99.90;;;;;;6213724;23;20012;-76
2023/10/01 01:48:30;;;;;;;12.55;10.07;;;16.00;99.90;;;;;;6212860;23;20519;-76
2023/10/01 01:51:00;;;;;;;13.88;10.30;;;15.90;99.90;;;;;;6240480;23;20004;-76
2023/10/01 01:53:27;;;;;;;15.45;10.98;;;15.90;99.90;;;;;;6240473;23;20004;-76
2023/10/01 01:55:56;;;;;;;12.52;9.90;;;15.90;99.90;;;;;;6213257;23;20378;-75
2023/10/01 01:58:26;;;;;;;12.65;10.13;;;15.90;99.90;;;;;;6240753;23;20389;-76
2023/10/01 02:03:39;;;;;;;12.82;9.18;;;16.00;99.90;;;;;;6241353;23;20070;-76
2023/10/01 02:06:07;;;;;;;11.15;9.00;;;16.00;99.90;;;;;;6240399;23;20000;-76
2023/10/01 02:11:22;;;;;;;10.43;9.32;;;16.00;99.90;;;;;;6240708;23;20015;-76
2023/10/01 02:13:51;;;;;;;13.85;8.98;;;16.00;99.90;;;;;;6242582;23;20007;-76
2023/10/01 02:18:58;;;;;;;13.07;8.77;;;16.00;99.90;;;;;;6253058;23;20077;-75
2023/10/01 02:21:42;;;;;;;12.50;8.70;;;16.10;99.90;;;;;;6242694;23;20000;-76
2023/10/01 02:24:12;;;;;;;10.93;9.82;;;16.00;99.90;;;;;;6242325;23;20019;-76
2023/10/01 02:26:42;;;;;;;11.45;7.97;;;16.10;99.90;;;;;;6215497;23;20031;-76
2023/10/01 02:29:09;;;;;;;11.18;8.25;;;16.10;99.90;;;;;;6242166;23;20081;-76
2023/10/01 02:31:35;;;;;;;13.80;8.70;;;16.10;99.90;;;;;;6241994;23;20004;-76
2023/10/01 02:34:01;;;;;;;12.75;8.52;;;16.10;99.90;;;;;;6215093;23;20027;-76
2023/10/01 02:36:30;;;;;;;8.88;7.90;;;16.10;99.90;;;;;;6242382;23;20008;-76
2023/10/01 02:38:56;;;;;;;11.05;7.93;;;16.10;99.90;;;;;;6242275;23;20137;-75
2023/10/01 02:41:25;;;;;;;10.95;8.23;;;16.20;99.90;;;;;;6242072;23;20115;-76
2023/10/01 02:43:52;;;;;;;13.40;8.65;;;16.20;99.90;;;;;;6241937;23;20170;-76
2023/10/01 02:46:26;;;;;;;10.50;8.43;;;16.20;99.90;;;;;;6242004;23;20016;-76
2023/10/01 02:48:54;;;;;;;;;;;16.20;99.90;;;;;;6242869;23;20000;-76
2023/10/01 02:51:32;;;;;;;8.98;7.30;;;16.20;99.90;;;;;;6242136;23;19904;-76
2023/10/01 02:54:05;;;;;;;11.73;8.95;;;16.20;99.90;;;;;;6242140;23;20008;-75
2023/10/01 02:56:37;;;;;;;10.95;7.93;;;16.20;99.90;;;;;;6215740;23;20018;-76
2023/10/01 02:59:15;;;;;;;11.93;8.23;;;16.20;99.90;;;;;;6214280;23;20447;-76
2023/10/01 03:01:47;;;;;;;13.57;8.52;;;16.20;99.90;;;;;;6242249;23;20000;-76
2023/10/01 03:04:17;;;;;;;11.57;8.55;;;16.20;99.90;;;;;;6241521;23;20089;-76
2023/10/01 03:06:55;;;;;;;11.90;8.90;;;16.20;99.90;;;;;;6242206;23;20459;-76
2023/10/01 03:09:22;;;;;;;13.45;8.55;;;16.20;99.90;;;;;;6242029;23;20019;-76
2023/10/01 03:11:53;;;;;;;10.93;7.68;;;16.20;99.90;;;;;;6242116;23;20024;-76
2023/10/01 03:14:26;;;;;;;12.70;9.07;;;16.20;99.90;;;;;;6241605;23;20067;-76
2023/10/01 03:16:53;;;;;;;10.50;7.82;;;16.20;99.90;;;;;;6241662;23;19996;-76
2023/10/01 03:19:27;;;;;;;12.63;8.40;;;16.10;99.90;;;;;;6242052;23;20032;-76
2023/10/01 03:24:33;;;;;;;11.80;7.57;;;16.10;99.90;;;;;;6240246;23;20054;-76
2023/10/01 03:27:13;;;;;;;9.90;7.53;;;16.10;99.90;;;;;;6213457;23;20110;-76
2023/10/01 03:29:42;;;;;;;10.43;6.88;;;16.10;99.90;;;;;;6241001;23;20437;-76
2023/10/01 03:32:27;;;;;;;10.35;6.90;;;16.10;99.90;;;;;;6240188;23;20365;-76
2023/10/01 03:34:53;;;;;;;8.85;6.75;;;16.10;99.90;;;;;;6241669;23;20471;-76
2023/10/01 03:37:19;;;;;;;10.50;7.07;;;16.10;99.90;;;;;;6241780;23;20012;-76
2023/10/01 03:39:50;;;;;;;7.72;6.35;;;16.10;99.90;;;;;;6240782;23;19996;-76
2023/10/01 03:42:17;;;;;;;10.57;7.03;;;16.10;99.90;;;;;;6240877;23;20000;-76
2023/10/01 03:45:18;;;;;;;11.63;6.45;;;16.10;99.90;;;;;;6241826;23;20080;-76
2023/10/01 03:47:50;;;;;;;8.32;5.72;;;16.10;99.90;;;;;;6214806;23;20008;-76
2023/10/01 03:50:20;;;;;;;9.27;6.28;;;16.10;99.90;;;;;;6241628;23;20022;-76
2023/10/01 03:52:52;;;;;;;9.07;6.35;;;16.10;99.90;;;;;;6241792;23;19996;-76
2023/10/01 03:55:31;;;;;;;9.02;6.53;;;16.20;99.90;;;;;;6241924;23;20325;-76
2023/10/01 04:00:40;;;;;;;12.48;6.72;;;16.20;99.90;;;;;;6252426;23;20070;-76
2023/10/01 04:03:08;;;;;;;9.32;6.13;;;16.20;99.90;;;;;;6241884;23;20000;-77
2023/10/01 04:05:34;;;;;;;9.65;5.90;;;16.20;99.90;;;;;;6241973;23;20027;-77
2023/10/01 04:08:08;;;;;;;10.25;6.22;;;16.20;99.90;;;;;;6241467;23;20007;-76
2023/10/01 04:10:35;;;;;;;8.20;5.85;;;16.20;99.90;;;;;;6241757;23;20004;-76
2023/10/01 04:13:12;;;;;;;8.60;5.68;;;16.30;99.90;;;;;;6214182;23;20000;-76
2023/10/01 04:15:43;;;;;;;10.13;6.10;;;16.40;99.90;;;;;;6241668;23;20437;-76
2023/10/01 04:18:18;;;;;;;11.57;6.80;;;16.30;99.90;;;;;;6214492;23;20399;-76
2023/10/01 04:23:31;;;;;;;11.60;5.95;;;16.30;99.90;;;;;;6250974;23;20388;-76
2023/10/01 04:26:06;;;;;;;9.48;6.68;;;16.30;99.90;;;;;;6240730;23;19996;-76
2023/10/01 04:28:35;;;;;;;8.73;5.18;;;16.30;99.90;;;;;;6241644;23;20007;-76
2023/10/01 04:31:03;;;;;;;11.02;6.45;;;16.30;99.90;;;;;;6241206;23;20024;-76
2023/10/01 04:33:32;;;;;;;12.80;6.55;;;16.30;99.90;;;;;;6241527;23;20448;-76
2023/10/01 04:36:01;;;;;;;9.65;5.63;;;16.30;99.90;;;;;;6240926;23;20004;-76
2023/10/01 04:38:32;;;;;;;6.97;5.20;;;16.30;99.90;;;;;;6241239;23;20007;-76
2023/10/01 04:40:58;;;;;;;7.43;6.20;;;16.30;99.90;;;;;;6240348;23;20022;-76
2023/10/01 04:43:26;;;;;;;9.85;6.70;;;16.30;99.90;;;;;;6214215;23;20325;-76
2023/10/01 04:45:52;;;;;;;10.35;6.32;;;16.30;99.90;;;;;;6241053;23;19996;-76
2023/10/01 04:48:22;;;;;;;9.32;6.07;;;16.30;99.90;;;;;;6214216;23;20004;-76
2023/10/01 04:50:59;;;;;;;8.90;5.78;;;16.40;99.90;;;;;;6214286;23;20050;-75
2023/10/01 04:53:25;;;;;;;10.45;5.63;;;16.30;99.90;;;;;;6214380;23;20000;-76
2023/10/01 04:56:01;;;;;;;9.00;5.70;;;16.30;99.90;;;;;;6213607;23;20146;-76
2023/10/01 04:58:29;;;;;;;12.30;7.03;;;16.30;99.90;;;;;;6241234;23;20071;-76
2023/10/01 05:00:56;;;;;;;7.90;5.55;;;16.30;99.90;;;;;;6240699;23;20000;-76
2023/10/01 05:03:38;;;;;;;9.35;6.05;;;16.30;99.90;;;;;;6241081;23;20066;-76
2023/10/01 05:06:07;;;;;;;11.88;7.25;;;16.30;99.90;;;;;;6240748;23;20000;-76
2023/10/01 05:08:38;;;;;;;10.90;7.10;;;16.30;99.90;;;;;;6214237;23;20004;-76
2023/10/01 05:11:13;;;;;;;12.85;7.03;;;16.30;99.90;;;;;;6237131;23;20095;-75
2023/10/01 05:13:41;;;;;;;11.10;6.30;;;16.30;99.90;;;;;;6238860;23;20004;-76
2023/10/01 05:16:14;;;;;;;10.52;6.22;;;16.30;99.90;;;;;;6239532;23;20085;-76
2023/10/01 05:18:45;;;;;;;10.27;5.80;;;16.30;99.90;;;;;;6239527;23;20000;-75
2023/10/01 05:21:13;;;;;;;8.20;5.80;;;16.30;99.90;;;;;;6240412;23;20012;-76
2023/10/01 05:23:40;;;;;;;10.40;6.60;;;16.30;99.90;;;;;;6240010;23;20516;-75
2023/10/01 05:26:08;;;;;;;11.13;6.53;;;16.30;99.90;;;;;;6240257;23;20026;-76
2023/10/01 05:28:41;;;;;;;10.95;7.10;;;16.30;99.90;;;;;;6240970;23;20004;-76
2023/10/01 05:31:12;;;;;;;12.82;6.65;;;16.30;99.90;;;;;;6240665;23;20000;-76
2023/10/01 05:33:39;;;;;;;8.48;6.03;;;16.30;99.90;;;;;;6241080;23;19996;-75
2023/10/01 05:36:06;;;;;;;9.57;6.30;;;16.40;99.90;;;;;;6240699;23;20012;-76
2023/10/01 05:38:35;;;;;;;10.73;6.90;;;16.40;99.90;;;;;;6240175;23;20007;-76
2023/10/01 05:41:03;;;;;;;10.90;7.35;;;16.30;99.90;;;;;;6240264;23;20012;-75
2023/10/01 05:43:43;;;;;;;9.52;5.97;;;16.40;99.90;;;;;;6241022;23;20011;-76
2023/10/01 05:46:09;;;;;;;11.13;6.63;;;16.40;99.90;;;;;;6240231;23;20018;-76
2023/10/01 05:48:40;;;;;;;10.85;7.10;;;16.40;99.90;;;;;;6240964;23;20076;-76
2023/10/01 05:51:11;;;;;;;10.32;7.10;;;16.40;99.90;;;;;;6240579;23;20000;-76
2023/10/01 05:53:37;;;;;;;11.23;6.90;;;16.40;99.90;;;;;;6240673;23;19996;-76
2023/10/01 05:56:10;;;;;;;8.77;6.72;;;16.40;99.90;;;;;;6213231;23;20007;-76
2023/10/01 05:58:38;;;;;;;8.97;6.17;;;16.40;99.90;;;;;;6241171;23;20008;-76
2023/10/01 06:01:13;;;;;;;10.85;6.20;;;16.40;99.90;;;;;;6240220;23;20596;-76
2023/10/01 06:03:40;;;;;;;8.63;5.80;;;16.40;99.90;;;;;;6240805;23;20134;-76
2023/10/01 06:06:25;;;;;;;14.25;7.18;;;16.40;99.90;;;;;;6240232;23;20090;-75
2023/10/01 06:08:58;;;;;;;12.57;7.32;;;16.40;99.90;;;;;;6213280;23;20626;-76
2023/10/01 06:11:38;;;;;;;11.10;6.45;;;16.40;99.90;;;;;;6213660;23;20001;-76
2023/10/01 06:14:05;;;;;;;9.38;6.10;;;16.50;99.90;;;;;;6240483;23;20440;-76
2023/10/01 06:16:37;;;;;;;9.10;5.95;;;16.50;99.90;;;;;;6240886;23;20015;-75
2023/10/01 06:19:03;;;;;;;11.15;6.53;;;16.50;99.90;;;;;;6240333;23;20008;-76
2023/10/01 06:21:34;;;;;;;9.93;7.22;;;16.50;99.90;;;;;;6213573;23;20034;-76
2023/10/01 06:24:18;;;;;;;9.50;6.22;;;16.50;99.90;;;;;;6240440;23;20333;-76
2023/10/01 06:26:45;;;;;;;;;;;16.60;99.90;;;;;;6241108;23;20008;-75
2023/10/01 06:29:13;;;;;;;11.98;7.05;;;16.60;99.90;;;;;;6240801;23;19930;-76
2023/10/01 06:32:00;;;;;;;9.88;6.32;;;16.60;99.90;;;;;;6213500;23;20499;-76
2023/10/01 06:34:31;;;;;;;9.40;6.60;;;16.60;99.90;;;;;;6240593;23;20000;-76
2023/10/01 06:36:59;;;;;;;10.13;6.57;;;16.60;99.90;;;;;;6239626;23;20000;-76
2023/10/01 06:39:30;;;;;;;12.48;7.00;;;16.60;99.90;;;;;;6239921;23;20004;-76
2023/10/01 06:42:42;;;;;;;11.98;8.05;;;16.70;99.90;;;;;;6240294;23;20019;-76
2023/10/01 06:44:43;;;;;;;14.95;7.57;;;16.70;99.90;;;;;;6224013;23;20448;-76
2023/10/01 06:47:15;;;;;;;12.15;7.53;;;16.80;99.90;;;;;;6240151;23;20382;-76
2023/10/01 06:49:57;;;;;;;13.63;6.93;;;16.80;99.90;;;;;;6240528;23;20007;-76
2023/10/01 06:52:34;;;;;;;11.30;7.35;;;16.80;99.90;;;;;;6239737;23;20004;-76
2023/10/01 06:55:01;;;;;;;11.75;7.25;;;16.80;99.90;;;;;;6240107;23;20071;-76
2023/10/01 06:57:31;;;;;;;12.15;8.38;;;16.80;99.90;;;;;;6239892;23;20004;-76
2023/10/01 06:59:56;;;;;;;12.80;8.20;;;16.90;99.90;;;;;;6241783;23;20087;-76
2023/10/01 07:02:26;;;;;;;12.38;7.22;;;16.90;99.90;;;;;;6241830;23;20024;-76
2023/10/01 07:04:58;;;;;;;10.50;6.88;;;16.90;99.90;;;;;;6214624;23;20336;-76
2023/10/01 07:07:28;;;;;;;16.02;8.18;;;17.00;99.90;;;;;;6241822;23;20429;-76
2023/10/01 07:09:56;;;;;;;13.07;8.50;;;17.00;99.90;;;;;;6241760;23;20371;-76
2023/10/01 07:12:25;;;;;;;14.30;7.28;;;17.00;99.90;;;;;;6241798;23;20007;-76
2023/10/01 07:14:52;;;;;;;13.40;8.05;;;16.90;99.90;;;;;;6242090;23;20006;-76
2023/10/01 07:17:24;;;;;;;14.35;7.38;;;16.90;99.90;;;;;;6241721;23;20849;-75
2023/10/01 07:20:00;;;;;;;11.35;7.75;;;16.80;99.90;;;;;;6214677;23;20738;-75
2023/10/01 07:22:32;;;;;;;13.75;7.93;;;16.80;99.90;;;;;;6241914;23;19996;-75
2023/10/01 07:24:59;;;;;;;12.98;7.53;;;16.80;99.90;;;;;;6241697;23;20008;-77
2023/10/01 07:27:28;;;;;;;10.00;7.10;;;16.70;99.90;;;;;;6241617;23;20004;-72
2023/10/01 07:29:54;;;;;;;12.18;7.57;;;16.70;99.90;;;;;;6241697;23;20003;-72
2023/10/01 07:32:23;;;;;;;12.38;7.50;;;16.70;99.90;;;;;;6241606;23;20000;-72
2023/10/01 07:34:55;;;;;;;16.95;8.77;;;16.80;99.90;;;;;;6241656;23;20011;-73
2023/10/01 07:37:25;;;;;;;12.50;7.82;;;16.80;99.90;;;;;;6241728;23;20003;-72
2023/10/01 07:39:55;;;;;;;11.25;7.65;;;16.80;99.90;;;;;;6241549;23;20008;-72
2023/10/01 07:42:22;;;;;;;11.75;7.20;;;16.80;99.90;;;;;;6241813;23;20046;-72
2023/10/01 07:44:49;;;;;;;13.50;7.75;;;16.80;99.90;;;;;;6241686;23;20000;-72
2023/10/01 07:47:28;;;;;;;9.82;7.78;;;16.80;99.90;;;;;;6214387;23;20027;-72
2023/10/01 07:49:56;;;;;;;15.48;8.07;;;16.80;99.90;;;;;;6214486;23;20088;-72
2023/10/01 07:52:23;;;;;;;12.23;7.90;;;16.80;99.90;;;;;;6214417;23;20432;-72
2023/10/01 07:54:49;;;;;;;11.02;7.57;;;16.80;99.90;;;;;;6214705;23;20004;-73
2023/10/01 07:57:27;;;;;;;14.23;7.57;;;16.90;99.90;;;;;;6241269;23;20008;-74
2023/10/01 07:59:59;;;;;;;12.10;7.80;;;17.00;99.90;;;;;;6241676;23;20067;-74
2023/10/01 08:02:28;;;;;;;14.30;8.02;;;17.00;99.90;;;;;;6241390;23;20610;-74
2023/10/01 08:04:57;;;;;;;15.07;8.73;;;17.10;99.90;;;;;;6241314;23;20000;-74
2023/10/01 08:07:31;;;;;;;17.60;8.07;;;17.10;99.90;;;;;;6240899;23;20115;-74
2023/10/01 08:09:59;;;;;;;12.43;8.35;;;17.10;99.90;;;;;;6240935;23;19996;-75
2023/10/01 08:12:29;;;;;;;12.00;7.53;;;17.10;99.90;;;;;;6241274;23;19996;-74
2023/10/01 08:15:15;;;;;;;13.60;8.90;;;17.20;99.90;;;;;;6241468;23;20038;-74
2023/10/01 08:17:43;;;;;;;14.35;8.43;;;17.20;99.90;;;;;;6241161;23;20023;-74
2023/10/01 08:20:21;;;;;;;15.00;8.27;;;17.30;99.90;;;;;;6214004;23;20008;-74
2023/10/01 08:25:34;;;;;;;14.18;8.50;;;17.40;99.90;;;;;;6241313;23;20014;-74
2023/10/01 08:28:26;;;;;;;15.13;9.50;;;17.40;99.90;;;;;;6241012;23;20004;-74
2023/10/01 08:30:49;;;;;;;17.15;9.52;;;17.50;99.90;;;;;;6241066;23;20005;-74
2023/10/01 08:33:19;;;;;;;14.25;8.82;;;17.60;99.90;;;;;;6213358;23;20008;-74
2023/10/01 08:36:05;;;;;;;17.00;9.63;;;17.60;99.90;;;;;;6241345;23;20148;-74
2023/10/01 08:38:37;;;;;;;14.43;9.77;;;17.60;99.90;;;;;;6241434;23;20095;-74
2023/10/01 08:41:05;;;;;;;13.13;8.93;;;17.70;99.90;;;;;;6240587;23;20016;-74
2023/10/01 08:43:35;;;;;;;15.77;9.95;;;17.80;99.90;;;;;;6241462;23;20000;-74
2023/10/01 08:46:17;;;;;;;15.45;10.05;;;17.80;99.90;;;;;;6240954;23;20028;-75
2023/10/01 08:48:43;;;;;;;15.90;9.07;;;17.90;99.90;;;;;;6240933;23;20015;-75
2023/10/01 08:51:11;;;;;;;14.15;8.63;;;17.90;99.90;;;;;;6241130;23;20344;-74
2023/10/01 08:53:43;;;;;;;15.10;9.13;;;18.00;99.90;;;;;;6241346;23;20073;-75
2023/10/01 08:56:13;;;;;;;14.30;9.23;;;18.00;99.90;;;;;;6241132;23;20079;-75
2023/10/01 08:58:49;;;;;;;19.30;10.95;;;18.10;99.90;;;;;;6240965;23;20039;-74
2023/10/01 09:01:19;;;;;;;13.85;8.95;;;18.20;99.90;;;;;;6240284;23;20004;-72
2023/10/01 09:03:49;;;;;;;13.95;9.15;;;18.20;99.90;;;;;;6240667;23;20083;-73
2023/10/01 09:06:25;;;;;;;15.52;8.77;;;18.30;99.90;;;;;;6238529;23;20080;-73
2023/10/01 09:08:54;;;;;;;18.13;10.30;;;18.30;99.90;;;;;;6238421;23;20075;-73
2023/10/01 09:11:42;;;;;;;16.65;9.35;;;18.40;99.90;;;;;;6238527;23;20449;-72
2023/10/01 09:14:17;;;;;;;22.13;11.35;;;18.50;99.90;;;;;;6238890;23;19997;-72
2023/10/01 09:16:57;;;;;;;15.00;8.63;;;18.60;99.90;;;;;;6238189;23;20697;-72
2023/10/01 09:19:30;;;;;;;19.02;11.30;;;18.60;99.90;;;;;;6211626;23;20012;-73
2023/10/01 09:22:16;;;;;;;15.50;8.23;;;18.70;99.90;;;;;;6240554;23;19996;-72
2023/10/01 09:24:43;;;;;;;15.40;9.38;;;18.70;99.90;;;;;;6240864;23;20390;-72
2023/10/01 09:27:19;;;;;;;18.42;10.43;;;18.80;99.90;;;;;;6240623;23;20380;-72
2023/10/01 09:29:48;;;;;;;17.00;9.30;;;18.90;99.90;;;;;;6240757;23;19996;-73
2023/10/01 09:32:14;;;;;;;15.93;9.23;;;18.90;99.90;;;;;;6213383;23;20134;-73
2023/10/01 09:34:47;;;;;;;16.40;9.02;;;19.00;99.90;;;;;;6240818;23;20422;-73
2023/10/01 09:37:35;;;;;;;16.38;8.73;;;19.10;99.90;;;;;;6240606;23;20054;-72
2023/10/01 09:40:32;;;;;;;15.57;9.48;;;19.20;99.90;;;;;;6240565;23;20019;-72
2023/10/01 09:42:57;;;;;;;16.58;8.75;;;19.40;99.90;;;;;;6240322;23;20000;-73
2023/10/01 09:45:39;;;;;;;14.80;8.95;;;19.40;99.90;;;;;;6239818;23;20333;-72
2023/10/01 09:48:09;;;;;;;16.40;8.57;;;19.60;99.80;;;;;;6240349;23;20004;-74
2023/10/01 09:50:41;;;;;;;13.88;8.77;;;19.60;99.70;;;;;;6240914;23;20378;-74
2023/10/01 09:53:14;;;;;;;16.05;9.60;;;19.70;99.70;;;;;;6240629;23;19996;-73
2023/10/01 09:55:47;;;;;;;14.50;7.95;;;19.90;99.50;;;;;;6240745;23;20001;-73
2023/10/01 09:58:30;;;;;;;12.82;7.47;;;19.90;99.60;;;;;;6240421;23;20370;-74
2023/10/01 10:01:02;;;;;;;14.75;8.52;;;20.10;99.30;;;;;;6239752;23;20425;-73
2023/10/01 10:03:36;;;;;;;15.25;9.18;;;20.10;99.20;;;;;;6240849;23;20001;-73
2023/10/01 10:06:06;;;;;;;12.85;7.60;;;20.20;99.20;;;;;;6240134;23;20004;-73
2023/10/01 10:08:34;;;;;;;16.10;9.15;;;20.30;99.10;;;;;;6240748;23;20399;-74
2023/10/01 10:11:02;;;;;;;14.55;9.23;;;20.40;99.00;;;;;;6240468;23;20007;-74
2023/10/01 10:13:45;;;;;;;16.02;8.60;;;20.50;99.00;;;;;;6213488;23;20325;-74
2023/10/01 10:16:30;;;;;;;14.63;8.55;;;20.50;99.00;;;;;;6240593;23;20004;-73
2023/10/01 10:19:21;;;;;;;14.32;8.15;;;20.60;98.90;;;;;;6213666;23;20062;-74
2023/10/01 10:24:35;;;;;;;15.43;8.02;;;20.70;98.40;;;;;;6241015;23;20055;-74
2023/10/01 10:27:07;;;;;;;14.93;8.57;;;20.70;98.40;;;;;;6240306;23;20004;-73
2023/10/01 10:29:57;;;;;;;13.30;8.82;;;20.80;98.40;;;;;;6213245;23;20011;-74
2023/10/01 10:32:31;;;;;;;15.90;8.77;;;20.80;98.40;;;;;;6240328;23;20293;-73
2023/10/01 10:35:06;;;;;;;14.32;8.35;;;20.90;98.40;;;;;;6214852;23;20004;-73
2023/10/01 10:37:38;;;;;;;16.42;8.70;;;21.10;98.30;;;;;;6242245;23;20083;-74
2023/10/01 10:40:22;;;;;;;15.27;8.57;;;21.30;98.30;;;;;;6241762;22;20008;-74
2023/10/01 10:42:57;;;;;;;13.23;7.47;;;21.40;98.10;;;;;;6241631;23;20005;-74
2023/10/01 10:45:31;;;;;;;16.48;8.85;;;21.60;98.00;;;;;;6215114;23;19996;-74
2023/10/01 10:47:58;;;;;;;15.70;9.02;;;21.80;97.80;;;;;;6241811;23;20389;-74
2023/10/01 10:50:48;;;;;;;13.48;7.78;;;21.80;97.90;;;;;;6242096;23;20422;-74
2023/10/01 10:53:19;;;;;;;14.52;8.05;;;21.90;97.30;;;;;;6242080;23;20000;-74
2023/10/01 10:55:57;;;;;;;13.80;8.57;;;22.00;97.40;;;;;;6242272;23;20080;-75
2023/10/01 10:58:28;;;;;;;14.75;9.13;;;22.10;97.20;;;;;;6214666;23;20000;-75
2023/10/01 11:00:55;;;;;;;13.98;8.23;;;22.10;97.10;;;;;;6214075;23;20416;-74
2023/10/01 11:03:41;;;;;;;15.30;8.52;;;22.20;97.10;;;;;;6214830;23;20008;-75
2023/10/01 11:06:20;;;;;;;14.52;8.23;;;22.20;96.90;;;;;;6242547;23;19996;-74
2023/10/01 11:08:50;;;;;;;12.63;8.63;;;22.20;97.00;;;;;;6242247;23;20374;-75
2023/10/01 11:11:43;;;;;;;16.48;9.52;;;22.20;97.00;;;;;;6214874;23;20070;-74
2023/10/01 11:14:18;;;;;;;17.67;9.93;;;22.10;97.00;;;;;;6242172;23;20382;-74
2023/10/01 11:16:48;;;;;;;14.40;9.10;;;22.00;97.00;;;;;;6242233;23;20004;-74
2023/10/01 11:19:19;;;;;;;16.77;9.40;;;21.90;97.00;;;;;;6241978;23;20054;-75
2023/10/01 11:21:55;;;;;;;13.45;8.55;;;21.90;97.10;;;;;;6241979;23;20000;-74
2023/10/01 11:24:29;;;;;;;15.02;8.50;;;21.80;97.10;;;;;;6241366;23;20398;-74
2023/10/01 11:27:14;;;;;;;14.55;8.80;;;21.80;97.20;;;;;;6241093;23;20034;-75
2023/10/01 11:29:58;;;;;;;13.57;8.05;;;21.70;97.20;;;;;;6241567;23;19996;-74
2023/10/01 11:32:58;;;;;;;;;;;21.70;97.30;;;;;;6215329;23;20004;-74
2023/10/01 11:35:36;;;;;;;12.40;7.78;;;21.70;97.40;;;;;;6214605;23;19904;-75
2023/10/01 11:38:07;;;;;;;15.70;7.65;;;21.60;97.50;;;;;;6241396;23;20366;-74
2023/10/01 11:43:32;;;;;;;15.05;8.60;;;21.60;97.50;;;;;;6241249;23;20066;-74
2023/10/01 11:46:23;;;;;;;13.50;7.57;;;21.60;97.50;;;;;;6214549;23;20111;-74
2023/10/01 11:48:59;;;;;;;16.10;8.15;;;21.70;97.40;;;;;;6214847;23;19997;-74
2023/10/01 11:51:50;;;;;;;13.40;7.30;;;21.70;97.30;;;;;;6214652;23;20161;-75
2023/10/01 11:54:18;;;;;;;10.77;7.25;;;21.70;97.30;;;;;;6214357;23;20000;-74
2023/10/01 11:57:06;;;;;;;11.00;6.80;;;21.70;97.40;;;;;;6241083;23;20340;-75
2023/10/01 11:59:37;;;;;;;12.27;7.68;;;21.80;97.40;;;;;;6212650;23;20337;-74
2023/10/01 12:02:20;;;;;;;14.10;8.82;;;21.80;97.40;;;;;;6213862;23;20008;-74
2023/10/01 12:04:56;;;;;;;13.02;8.05;;;21.80;97.30;;;;;;6241811;23;20062;-75
2023/10/01 12:07:26;;;;;;;14.02;8.75;;;21.80;97.30;;;;;;6241092;23;20035;-75
2023/10/01 12:09:54;;;;;;;14.55;8.90;;;21.80;97.20;;;;;;6240644;23;20004;-73
2023/10/01 12:12:25;;;;;;;11.82;7.43;;;21.80;97.20;;;;;;6241141;23;20004;-73
2023/10/01 12:14:55;;;;;;;13.63;7.88;;;21.80;97.20;;;;;;6241950;23;20421;-75
2023/10/01 12:17:25;;;;;;;14.60;7.38;;;21.90;97.20;;;;;;6241490;23;20007;-73
2023/10/01 12:20:01;;;;;;;10.20;6.45;;;21.90;97.20;;;;;;6241519;23;20079;-73
2023/10/01 12:22:29;;;;;;;13.15;6.90;;;22.00;97.30;;;;;;6241607;23;20000;-73
2023/10/01 12:24:58;;;;;;;12.07;7.38;;;21.90;97.20;;;;;;6213503;23;20008;-72
2023/10/01 12:27:40;;;;;;;12.18;7.50;;;22.00;97.20;;;;;;6240378;23;20381;-73
2023/10/01 12:32:52;;;;;;;12.63;7.88;;;22.10;97.20;;;;;;6240734;23;20467;-73
2023/10/01 12:35:27;;;;;;;12.02;6.43;;;22.10;97.10;;;;;;6240684;23;20326;-73
2023/10/01 12:38:05;;;;;;;12.40;6.47;;;22.10;97.00;;;;;;6241256;23;20472;-73
2023/10/01 12:40:34;;;;;;;13.57;7.20;;;22.20;97.00;;;;;;6240140;23;20111;-72
2023/10/01 12:45:51;;;;;;;11.63;7.13;;;22.30;97.00;;;;;;6240558;23;20066;-73
2023/10/01 12:48:20;;;;;;;11.15;6.82;;;22.30;97.00;;;;;;6239809;23;20008;-73
2023/10/01 12:50:59;;;;;;;10.73;6.43;;;22.40;97.00;;;;;;6241245;23;20690;-74
2023/10/01 12:53:34;;;;;;;13.60;7.72;;;22.50;96.90;;;;;;6239834;23;20000;-72
2023/10/01 12:56:10;;;;;;;9.32;6.85;;;22.50;96.90;;;;;;6240688;23;20058;-73
2023/10/01 12:58:35;;;;;;;11.30;6.88;;;22.60;96.80;;;;;;6240657;23;20019;-75
2023/10/01 13:01:23;;;;;;;10.90;6.35;;;22.70;96.90;;;;;;6240386;23;20004;-74
2023/10/01 13:03:50;;;;;;;10.20;6.65;;;22.80;96.90;;;;;;6240463;23;20080;-73
2023/10/01 13:06:15;;;;;;;9.55;5.70;;;23.00;96.80;;;;;;6240091;23;20000;-73
2023/10/01 13:08:42;;;;;;;10.00;6.18;;;23.10;96.70;;;;;;6212924;23;20007;-75
2023/10/01 13:11:42;;;;;;;9.88;5.88;;;23.20;96.50;;;;;;6240765;23;20075;-74
2023/10/01 13:13:53;;;;;;;10.48;5.50;;;23.30;96.30;;;;;;6236628;23;20011;-73
2023/10/01 13:16:19;;;;;;;10.85;5.85;;;23.40;96.10;;;;;;6238774;23;20007;-73
2023/10/01 13:18:44;;;;;;;9.57;6.07;;;23.40;95.90;;;;;;6212267;23;20000;-73
2023/10/01 13:21:10;;;;;;;9.45;5.68;;;23.50;95.80;;;;;;6213609;23;20008;-74
2023/10/01 13:23:42;;;;;;;8.73;5.57;;;23.50;95.60;;;;;;6239853;23;20004;-74
2023/10/01 13:26:15;;;;;;;11.07;6.32;;;23.50;95.50;;;;;;6238830;23;20069;-73
2023/10/01 13:28:54;;;;;;;11.23;6.15;;;23.50;95.50;;;;;;6239998;23;20003;-73
2023/10/01 13:34:06;;;;;;;13.30;7.50;;;23.50;95.50;;;;;;6251061;23;20537;-73
2023/10/01 14:09:47;;;;;;;12.45;7.40;;;23.70;95.20;;;;;;6242589;23;20015;-73